Time;durP1;ratioP1;P1;durP2;ratioP2;P2;SDS_P1;SDS_P2;PMS_P1;PMS_P2;Temp;Humidity;BMP_temperature;BMP_pressure;BME280_temperature;BME280_humidity;BME280_pressure;Samples;Min_cycle;Max_cycle;Signal;HPM_P1;HPM_P2
2022/01/10 00:00:12;;;;;;;0.30;0.30;;;1.90;99.90;;;;;;4938684;29;20435;-78
2022/01/10 00:02:39;;;;;;;0.30;0.30;;;1.90;99.90;;;;;;4939319;29;20447;-78
2022/01/10 00:05:07;;;;;;;0.30;0.30;;;1.80;99.90;;;;;;4937255;29;20970;-78
2022/01/10 00:07:34;;;;;;;0.30;0.30;;;1.80;99.90;;;;;;4938504;29;20485;-78
2022/01/10 00:10:02;;;;;;;0.30;0.27;;;1.80;99.90;;;;;;4938729;29;20463;-78
2022/01/10 00:12:30;;;;;;;0.40;0.40;;;1.80;99.90;;;;;;4938295;29;20450;-78
2022/01/10 00:14:57;;;;;;;0.40;0.40;;;1.80;99.90;;;;;;4938694;29;20829;-78
2022/01/10 00:17:24;;;;;;;0.40;0.30;;;1.90;99.90;;;;;;4938676;29;20455;-78
2022/01/10 00:19:51;;;;;;;0.30;0.20;;;1.90;99.90;;;;;;4938263;29;20942;-78
2022/01/10 00:22:18;;;;;;;0.30;0.30;;;1.80;99.90;;;;;;4938179;29;20948;-77
2022/01/10 00:24:45;;;;;;;0.30;0.20;;;1.90;99.90;;;;;;4938169;29;20517;-78
2022/01/10 00:27:12;;;;;;;0.30;0.20;;;1.90;99.90;;;;;;4938377;29;20500;-78
2022/01/10 00:29:40;;;;;;;0.50;0.33;;;1.90;99.90;;;;;;4938396;29;20473;-78
2022/01/10 00:32:07;;;;;;;1.20;1.10;;;1.90;99.90;;;;;;4938361;29;20448;-78
2022/01/10 00:34:34;;;;;;;0.30;0.30;;;1.90;99.90;;;;;;4938130;29;20513;-78
2022/01/10 00:37:01;;;;;;;0.30;0.20;;;1.90;99.90;;;;;;4937961;29;20958;-78
2022/01/10 00:39:28;;;;;;;0.30;0.30;;;1.90;99.90;;;;;;4938277;29;20455;-78
2022/01/10 00:41:55;;;;;;;0.30;0.30;;;1.90;99.90;;;;;;4937879;29;20974;-78
2022/01/10 00:44:26;;;;;;;0.30;0.30;;;2.00;99.90;;;;;;4937799;29;20865;-78
2022/01/10 00:46:54;;;;;;;0.30;0.30;;;2.00;99.90;;;;;;4938245;29;20435;-77
2022/01/10 00:49:21;;;;;;;0.30;0.20;;;1.90;99.90;;;;;;4930281;29;20494;-78
2022/01/10 00:51:47;;;;;;;0.30;0.20;;;1.90;99.90;;;;;;4938064;29;20478;-78
2022/01/10 00:54:14;;;;;;;0.77;0.77;;;2.00;99.90;;;;;;4937587;29;21021;-78
2022/01/10 00:56:41;;;;;;;0.30;0.20;;;2.00;99.90;;;;;;4937818;29;20462;-78
2022/01/10 00:59:08;;;;;;;0.30;0.20;;;2.00;99.90;;;;;;4937664;29;20453;-78
2022/01/10 01:01:34;;;;;;;0.40;0.40;;;2.00;99.90;;;;;;4937922;29;20466;-78
2022/01/10 01:04:03;;;;;;;0.40;0.40;;;1.90;99.90;;;;;;4937813;29;20481;-78
2022/01/10 01:06:30;;;;;;;0.30;0.20;;;1.90;99.90;;;;;;4938016;29;20499;-78
2022/01/10 01:09:01;;;;;;;0.30;0.30;;;2.00;99.90;;;;;;4937987;29;20483;-78
2022/01/10 01:11:53;;;;;;;0.30;0.30;;;2.00;99.90;;;;;;4937704;29;20451;-78
2022/01/10 01:14:26;;;;;;;0.83;0.83;;;2.00;99.90;;;;;;4937702;29;20471;-78
2022/01/10 01:17:09;;;;;;;0.40;0.40;;;2.00;99.90;;;;;;4937426;29;20444;-78
2022/01/10 01:20:06;;;;;;;0.30;0.30;;;2.00;99.90;;;;;;4937666;29;20483;-78
2022/01/10 01:25:17;;;;;;;0.30;0.30;;;2.00;99.90;;;;;;4937857;29;20414;-78
2022/01/10 01:27:45;;;;;;;0.30;0.30;;;1.90;99.90;;;;;;4936974;29;20494;-78
2022/01/10 01:30:12;;;;;;;0.30;0.30;;;2.00;99.90;;;;;;4937338;29;20447;-78
2022/01/10 01:32:39;;;;;;;0.30;0.20;;;1.90;99.90;;;;;;4937211;29;20459;-78
2022/01/10 01:35:08;;;;;;;0.30;0.27;;;1.90;99.90;;;;;;4936996;29;20555;-78
2022/01/10 01:37:37;;;;;;;0.30;0.30;;;2.00;99.90;;;;;;4937665;29;20454;-78
2022/01/10 01:40:05;;;;;;;0.30;0.20;;;2.00;99.90;;;;;;4937506;29;20430;-78
2022/01/10 01:42:35;;;;;;;1.27;0.50;;;2.00;99.90;;;;;;4937577;29;20479;-78
2022/01/10 01:45:05;;;;;;;0.30;0.30;;;2.00;99.90;;;;;;4937404;29;20447;-78
2022/01/10 01:47:31;;;;;;;0.30;0.30;;;1.90;99.90;;;;;;4936641;29;20462;-78
2022/01/10 01:49:59;;;;;;;0.30;0.30;;;1.90;99.90;;;;;;4937038;29;20459;-78
2022/01/10 01:52:28;;;;;;;0.30;0.20;;;1.90;99.90;;;;;;4936866;29;20455;-78
2022/01/10 01:54:55;;;;;;;0.30;0.27;;;2.00;99.90;;;;;;4936899;29;20443;-78
2022/01/10 01:57:23;;;;;;;0.93;0.93;;;2.00;99.90;;;;;;4937176;29;20474;-78
2022/01/10 01:59:50;;;;;;;0.30;0.30;;;2.00;99.90;;;;;;4936848;29;20458;-78
2022/01/10 02:02:17;;;;;;;0.30;0.30;;;2.00;99.90;;;;;;4936891;29;20455;-78
2022/01/10 02:04:44;;;;;;;0.30;0.30;;;2.00;99.90;;;;;;4936709;29;20467;-78
2022/01/10 02:07:11;;;;;;;0.47;0.47;;;2.00;99.90;;;;;;4936778;29;20482;-78
2022/01/10 02:09:39;;;;;;;0.33;0.33;;;2.00;99.90;;;;;;4936298;29;20495;-78
2022/01/10 02:12:06;;;;;;;0.30;0.30;;;2.00;99.90;;;;;;4936748;29;20455;-78
2022/01/10 02:14:33;;;;;;;0.30;0.30;;;2.00;99.90;;;;;;4936511;29;20482;-78
2022/01/10 02:16:59;;;;;;;0.30;0.30;;;2.00;99.90;;;;;;4936261;29;20455;-78
2022/01/10 02:19:26;;;;;;;0.30;0.30;;;2.00;99.90;;;;;;4936387;29;20455;-78
2022/01/10 02:21:55;;;;;;;0.33;0.33;;;1.90;99.90;;;;;;4936470;29;20458;-78
2022/01/10 02:24:23;;;;;;;0.60;0.60;;;1.90;99.90;;;;;;4937412;29;20467;-78
2022/01/10 02:26:51;;;;;;;0.30;0.30;;;1.90;99.90;;;;;;4942031;29;20455;-78
2022/01/10 02:29:18;;;;;;;0.30;0.23;;;1.90;99.90;;;;;;4940135;29;20493;-79
2022/01/10 02:31:45;;;;;;;0.40;0.40;;;1.90;99.90;;;;;;4943464;29;20459;-78
2022/01/10 02:34:16;;;;;;;0.30;0.30;;;1.90;99.90;;;;;;4940911;29;20487;-78
2022/01/10 02:36:42;;;;;;;0.30;0.30;;;1.90;99.90;;;;;;4939039;29;20445;-78
2022/01/10 02:39:11;;;;;;;0.30;0.30;;;2.00;99.90;;;;;;4939556;29;20446;-78
2022/01/10 02:41:40;;;;;;;0.30;0.30;;;2.00;99.90;;;;;;4939137;29;20981;-78
2022/01/10 02:44:12;;;;;;;0.30;0.30;;;2.00;99.90;;;;;;4938844;29;20491;-78
2022/01/10 02:46:40;;;;;;;0.30;0.30;;;2.00;99.90;;;;;;4938276;29;20473;-78
2022/01/10 02:49:11;;;;;;;0.67;0.67;;;1.90;99.90;;;;;;4938126;29;20491;-78
2022/01/10 02:51:38;;;;;;;0.30;0.27;;;1.90;99.90;;;;;;4938393;29;20455;-78
2022/01/10 02:54:07;;;;;;;0.30;0.20;;;1.90;99.90;;;;;;4938166;29;20478;-78
2022/01/10 02:56:35;;;;;;;0.30;0.30;;;1.90;99.90;;;;;;4938308;29;20527;-78
2022/01/10 02:59:02;;;;;;;0.30;0.30;;;1.90;99.90;;;;;;4937971;29;20447;-78
2022/01/10 03:01:28;;;;;;;0.30;0.30;;;1.90;99.90;;;;;;4938801;29;20443;-78
2022/01/10 03:03:55;;;;;;;0.30;0.30;;;1.90;99.90;;;;;;4938157;29;20449;-78
2022/01/10 03:06:22;;;;;;;0.30;0.27;;;1.90;99.90;;;;;;4938871;29;20454;-78
2022/01/10 03:08:48;;;;;;;0.30;0.30;;;1.90;99.90;;;;;;4938792;29;20512;-78
2022/01/10 03:11:15;;;;;;;0.30;0.30;;;1.90;99.90;;;;;;4938714;29;20455;-78
2022/01/10 03:13:43;;;;;;;0.30;0.20;;;1.90;99.90;;;;;;4938891;29;20843;-78
2022/01/10 03:16:10;;;;;;;0.30;0.30;;;1.80;99.90;;;;;;4938872;29;20455;-78
2022/01/10 03:18:37;;;;;;;0.30;0.20;;;1.70;99.90;;;;;;4938628;29;20458;-78
2022/01/10 03:21:03;;;;;;;0.70;0.70;;;1.70;99.90;;;;;;4939223;29;20451;-78
2022/01/10 03:23:30;;;;;;;0.73;0.73;;;1.70;99.90;;;;;;4938852;29;20478;-78
2022/01/10 03:25:57;;;;;;;0.30;0.30;;;1.70;99.90;;;;;;4938985;29;20510;-78
2022/01/10 03:28:24;;;;;;;0.30;0.20;;;1.70;99.90;;;;;;4939006;29;20486;-78
2022/01/10 03:30:52;;;;;;;0.30;0.30;;;1.70;99.90;;;;;;4939116;29;20451;-78
2022/01/10 03:33:19;;;;;;;0.40;0.30;;;1.70;99.90;;;;;;4930972;29;20459;-78
2022/01/10 03:35:46;;;;;;;0.47;0.47;;;1.60;99.90;;;;;;4939133;29;20489;-78
2022/01/10 03:38:12;;;;;;;0.40;0.40;;;1.70;99.90;;;;;;4939139;29;20459;-78
2022/01/10 03:40:39;;;;;;;0.33;0.33;;;1.70;99.90;;;;;;4941083;29;20462;-78
2022/01/10 03:43:06;;;;;;;0.30;0.20;;;1.70;99.90;;;;;;4942439;29;20481;-78
2022/01/10 03:45:33;;;;;;;0.80;0.67;;;1.70;99.90;;;;;;4942623;29;20454;-78
2022/01/10 03:48:01;;;;;;;0.33;0.33;;;1.70;99.90;;;;;;4941991;29;20498;-78
2022/01/10 03:50:28;;;;;;;0.33;0.30;;;1.70;99.90;;;;;;4942379;29;20459;-78
2022/01/10 03:52:54;;;;;;;0.30;0.30;;;1.70;99.90;;;;;;4941944;29;20463;-78
2022/01/10 03:55:21;;;;;;;1.03;0.93;;;1.70;99.90;;;;;;4941810;29;20450;-78
2022/01/10 03:57:48;;;;;;;0.43;0.43;;;1.70;99.90;;;;;;4942111;29;20444;-78
2022/01/10 04:00:15;;;;;;;0.30;0.30;;;1.70;99.90;;;;;;4941662;29;20454;-78
2022/01/10 04:02:46;;;;;;;0.30;0.20;;;1.70;99.90;;;;;;4941056;29;20936;-78
2022/01/10 04:05:14;;;;;;;0.30;0.30;;;1.70;99.90;;;;;;4941210;29;20535;-78
2022/01/10 04:07:41;;;;;;;0.30;0.30;;;1.70;99.90;;;;;;4940198;29;20466;-78
2022/01/10 04:10:08;;;;;;;0.40;0.40;;;1.70;99.90;;;;;;4939339;29;20479;-78
2022/01/10 04:12:35;;;;;;;0.30;0.30;;;1.70;99.90;;;;;;4938746;29;20462;-78
2022/01/10 04:15:03;;;;;;;0.40;0.30;;;1.70;99.90;;;;;;4938502;29;20462;-78
2022/01/10 04:17:30;;;;;;;0.40;0.40;;;1.80;99.90;;;;;;4938702;29;20455;-78
2022/01/10 04:19:57;;;;;;;0.30;0.30;;;1.80;99.90;;;;;;4938313;29;20975;-78
2022/01/10 04:22:25;;;;;;;0.40;0.37;;;1.80;99.90;;;;;;4938610;29;20459;-78
2022/01/10 04:24:51;;;;;;;0.30;0.30;;;1.80;99.90;;;;;;4938247;29;20446;-78
2022/01/10 04:27:18;;;;;;;0.30;0.30;;;1.80;99.90;;;;;;4938383;29;20451;-78
2022/01/10 04:29:45;;;;;;;0.40;0.40;;;1.80;99.90;;;;;;4939556;29;20495;-78
2022/01/10 04:32:12;;;;;;;0.40;0.40;;;1.80;99.90;;;;;;4938320;29;20962;-78
2022/01/10 04:34:39;;;;;;;0.47;0.47;;;1.80;99.90;;;;;;4937978;29;20495;-78
2022/01/10 04:37:06;;;;;;;0.30;0.30;;;1.80;99.90;;;;;;4938134;29;20550;-77
2022/01/10 04:39:35;;;;;;;0.30;0.30;;;1.80;99.90;;;;;;4938255;29;20538;-78
2022/01/10 04:42:02;;;;;;;0.33;0.33;;;1.80;99.90;;;;;;4938298;29;20466;-78
2022/01/10 04:44:29;;;;;;;0.30;0.30;;;1.80;99.90;;;;;;4937731;29;20476;-78
2022/01/10 04:46:56;;;;;;;0.30;0.30;;;1.80;99.90;;;;;;4938244;29;20455;-78
2022/01/10 04:49:24;;;;;;;1.13;1.13;;;1.80;99.90;;;;;;4938122;29;20857;-78
2022/01/10 04:51:52;;;;;;;0.40;0.40;;;1.80;99.90;;;;;;4937041;29;20555;-78
2022/01/10 04:54:19;;;;;;;0.30;0.30;;;1.80;99.90;;;;;;4938078;29;20481;-78
2022/01/10 04:56:47;;;;;;;0.53;0.53;;;1.80;99.90;;;;;;4940228;29;20459;-78
2022/01/10 04:59:14;;;;;;;0.30;0.30;;;1.80;99.90;;;;;;4943555;29;20473;-77
2022/01/10 05:01:41;;;;;;;0.77;0.77;;;1.90;99.90;;;;;;4939712;29;20459;-78
2022/01/10 05:04:10;;;;;;;0.30;0.20;;;1.90;99.90;;;;;;4938969;29;20475;-78
2022/01/10 05:06:36;;;;;;;0.30;0.30;;;1.90;99.90;;;;;;4938995;29;20455;-78
2022/01/10 05:09:03;;;;;;;0.30;0.30;;;1.90;99.90;;;;;;4938147;29;20818;-78
2022/01/10 05:11:32;;;;;;;0.30;0.30;;;1.90;99.90;;;;;;4938518;29;20463;-78
2022/01/10 05:14:00;;;;;;;0.83;0.47;;;1.90;99.90;;;;;;4938905;29;20562;-78
2022/01/10 05:16:27;;;;;;;0.50;0.50;;;1.90;99.90;;;;;;4938919;29;20451;-78
2022/01/10 05:18:54;;;;;;;0.30;0.27;;;1.80;99.90;;;;;;4938557;29;20466;-78
2022/01/10 05:21:20;;;;;;;0.40;0.40;;;1.80;99.90;;;;;;4938674;29;20454;-78
2022/01/10 05:23:47;;;;;;;0.30;0.30;;;1.80;99.90;;;;;;4938502;29;20971;-78
2022/01/10 05:26:14;;;;;;;0.30;0.30;;;1.80;99.90;;;;;;4938627;29;20467;-78
2022/01/10 05:28:41;;;;;;;0.40;0.40;;;1.80;99.90;;;;;;4938458;29;20451;-78
2022/01/10 05:31:09;;;;;;;0.30;0.30;;;1.80;99.90;;;;;;4938290;29;20467;-78
2022/01/10 05:33:36;;;;;;;0.70;0.60;;;1.80;99.90;;;;;;4938634;29;20479;-77
2022/01/10 05:36:02;;;;;;;0.87;0.87;;;1.90;99.90;;;;;;4938003;29;20497;-78
2022/01/10 05:38:29;;;;;;;0.30;0.30;;;1.90;99.90;;;;;;4938140;29;20461;-78
2022/01/10 05:40:56;;;;;;;0.73;0.73;;;1.90;99.90;;;;;;4938331;29;20447;-78
2022/01/10 05:43:22;;;;;;;0.40;0.40;;;1.90;99.90;;;;;;4937354;29;20471;-78
2022/01/10 05:45:49;;;;;;;0.30;0.30;;;1.90;99.90;;;;;;4937686;29;20439;-78
2022/01/10 05:48:24;;;;;;;0.40;0.40;;;1.80;99.90;;;;;;4937930;29;20827;-78
2022/01/10 05:50:51;;;;;;;0.30;0.30;;;1.80;99.90;;;;;;4937801;29;20525;-78
2022/01/10 05:53:18;;;;;;;0.30;0.30;;;1.80;99.90;;;;;;4937649;29;20466;-78
2022/01/10 05:55:45;;;;;;;0.30;0.30;;;1.80;99.90;;;;;;4937598;29;20485;-78
2022/01/10 05:58:12;;;;;;;0.30;0.30;;;1.80;99.90;;;;;;4937734;29;20437;-78
2022/01/10 06:00:40;;;;;;;0.30;0.30;;;1.80;99.90;;;;;;4937371;29;20459;-78
2022/01/10 06:03:07;;;;;;;0.30;0.30;;;1.80;99.90;;;;;;4937401;29;20459;-78
2022/01/10 06:05:35;;;;;;;0.40;0.40;;;1.80;99.90;;;;;;4938597;29;20462;-78
2022/01/10 06:08:04;;;;;;;0.50;0.50;;;1.80;99.90;;;;;;4938074;29;20454;-78
2022/01/10 06:10:31;;;;;;;0.30;0.30;;;1.70;99.90;;;;;;4937713;29;20490;-78
2022/01/10 06:12:59;;;;;;;0.30;0.20;;;1.80;99.90;;;;;;4938138;29;20537;-78
2022/01/10 06:15:26;;;;;;;0.97;0.87;;;1.70;99.90;;;;;;4938167;29;20459;-78
2022/01/10 06:17:53;;;;;;;0.30;0.30;;;1.80;99.90;;;;;;4938169;29;20455;-78
2022/01/10 06:20:20;;;;;;;0.30;0.30;;;1.80;99.90;;;;;;4938857;29;20447;-78
2022/01/10 06:22:48;;;;;;;0.30;0.20;;;1.80;99.90;;;;;;4937611;29;20479;-78
2022/01/10 06:25:17;;;;;;;0.40;0.40;;;1.80;99.90;;;;;;4937282;29;20455;-78
2022/01/10 06:27:44;;;;;;;0.30;0.30;;;1.90;99.90;;;;;;4937991;29;20463;-78
2022/01/10 06:30:11;;;;;;;0.30;0.30;;;1.90;99.90;;;;;;4937371;29;20486;-78
2022/01/10 06:32:38;;;;;;;0.30;0.30;;;1.90;99.90;;;;;;4937610;29;20459;-78
2022/01/10 06:35:06;;;;;;;0.40;0.40;;;1.90;99.90;;;;;;4937688;29;20491;-78
2022/01/10 06:37:33;;;;;;;0.30;0.30;;;1.90;99.90;;;;;;4937946;29;20443;-78
2022/01/10 06:40:01;;;;;;;0.30;0.30;;;1.90;99.90;;;;;;4937914;29;20451;-78
2022/01/10 06:42:28;;;;;;;0.33;0.33;;;1.90;99.90;;;;;;4936867;29;20451;-78
2022/01/10 06:44:55;;;;;;;0.30;0.30;;;1.90;99.90;;;;;;4936278;29;20454;-78
2022/01/10 06:47:21;;;;;;;0.40;0.40;;;2.00;99.90;;;;;;4937780;29;20462;-79
2022/01/10 06:49:48;;;;;;;0.30;0.30;;;2.00;99.90;;;;;;4937436;29;20846;-78
2022/01/10 06:52:15;;;;;;;0.30;0.30;;;2.10;99.90;;;;;;4937271;29;20457;-78
2022/01/10 06:54:42;;;;;;;0.40;0.40;;;2.00;99.90;;;;;;4936981;29;20490;-78
2022/01/10 06:57:10;;;;;;;0.30;0.30;;;2.00;99.90;;;;;;4936736;29;20972;-78
2022/01/10 06:59:37;;;;;;;0.30;0.30;;;2.00;99.90;;;;;;4936708;29;20969;-78
2022/01/10 07:02:04;;;;;;;0.30;0.20;;;2.00;99.90;;;;;;4937184;29;20455;-79
2022/01/10 07:04:32;;;;;;;0.50;0.47;;;2.00;99.90;;;;;;4936705;29;20463;-79
2022/01/10 07:06:59;;;;;;;0.30;0.30;;;2.00;99.90;;;;;;4937199;29;20447;-79
2022/01/10 07:09:25;;;;;;;0.30;0.30;;;2.00;99.90;;;;;;4937130;29;20487;-79
2022/01/10 07:11:52;;;;;;;0.57;0.33;;;2.00;99.90;;;;;;4936936;29;20454;-79
2022/01/10 07:14:20;;;;;;;0.33;0.33;;;2.00;99.90;;;;;;4938503;29;20485;-79
2022/01/10 07:16:49;;;;;;;0.30;0.30;;;2.00;99.90;;;;;;4940790;29;20443;-79
2022/01/10 07:19:16;;;;;;;0.30;0.30;;;2.10;99.90;;;;;;4941765;29;20550;-79
2022/01/10 07:21:43;;;;;;;0.50;0.50;;;2.10;99.90;;;;;;4940653;29;20955;-79
2022/01/10 07:24:10;;;;;;;0.30;0.30;;;2.10;99.90;;;;;;4940839;29;20485;-79
2022/01/10 07:26:37;;;;;;;0.40;0.40;;;2.10;99.90;;;;;;4943337;29;20458;-79
2022/01/10 07:29:06;;;;;;;0.30;0.30;;;2.20;99.90;;;;;;4947818;29;20451;-79
2022/01/10 07:31:34;;;;;;;0.50;0.50;;;2.20;99.90;;;;;;4945952;29;20487;-79
2022/01/10 07:34:01;;;;;;;0.50;0.50;;;2.20;99.90;;;;;;4944655;29;20479;-79
2022/01/10 07:36:27;;;;;;;0.40;0.40;;;2.20;99.90;;;;;;4942405;29;20443;-79
2022/01/10 07:38:54;;;;;;;1.43;1.17;;;2.20;99.90;;;;;;4942141;29;20444;-78
2022/01/10 07:41:21;;;;;;;0.30;0.30;;;2.30;99.90;;;;;;4941970;29;20420;-79
2022/01/10 07:43:48;;;;;;;2.30;0.57;;;2.30;99.90;;;;;;4941620;29;20475;-79
2022/01/10 07:46:15;;;;;;;0.40;0.40;;;2.40;99.90;;;;;;4941810;29;20435;-78
2022/01/10 07:48:44;;;;;;;0.50;0.50;;;2.40;99.90;;;;;;4940701;29;20443;-79
2022/01/10 07:51:12;;;;;;;0.30;0.30;;;2.40;99.90;;;;;;4940475;29;20997;-78
2022/01/10 07:53:40;;;;;;;0.30;0.30;;;2.30;99.90;;;;;;4940317;29;20486;-79
2022/01/10 07:56:07;;;;;;;0.30;0.30;;;2.30;99.90;;;;;;4940571;29;20443;-79
2022/01/10 07:58:35;;;;;;;0.47;0.47;;;2.30;99.90;;;;;;4940044;29;20428;-79
2022/01/10 08:01:02;;;;;;;0.40;0.40;;;2.30;99.90;;;;;;4941174;29;20436;-78
2022/01/10 08:03:29;;;;;;;0.77;0.40;;;2.30;99.90;;;;;;4941254;29;20455;-79
2022/01/10 08:05:57;;;;;;;0.87;0.87;;;2.30;99.90;;;;;;4940078;29;20443;-79
2022/01/10 08:08:23;;;;;;;0.30;0.30;;;2.20;99.90;;;;;;4939389;29;20458;-79
2022/01/10 08:10:50;;;;;;;1.70;1.70;;;2.30;99.90;;;;;;4939692;29;20478;-78
2022/01/10 08:13:17;;;;;;;0.30;0.30;;;2.30;99.90;;;;;;4939098;29;21007;-79
2022/01/10 08:15:44;;;;;;;0.80;0.80;;;2.40;99.90;;;;;;4939573;29;20451;-79
2022/01/10 08:18:11;;;;;;;0.40;0.40;;;2.40;99.90;;;;;;4939311;29;20463;-79
2022/01/10 08:20:38;;;;;;;0.47;0.47;;;2.50;99.90;;;;;;4938893;29;20443;-79
2022/01/10 08:23:06;;;;;;;0.30;0.30;;;2.50;99.90;;;;;;4938959;29;21018;-79
2022/01/10 08:25:33;;;;;;;0.67;0.67;;;2.60;99.90;;;;;;4938620;29;20455;-79
2022/01/10 08:28:00;;;;;;;0.30;0.30;;;2.60;99.90;;;;;;4938578;29;20443;-79
2022/01/10 08:30:27;;;;;;;0.30;0.30;;;2.70;99.90;;;;;;4938942;29;20490;-77
2022/01/10 08:32:54;;;;;;;0.30;0.30;;;2.70;99.90;;;;;;4938586;29;21013;-78
2022/01/10 08:35:20;;;;;;;0.40;0.40;;;2.70;99.90;;;;;;4938607;29;20494;-79
2022/01/10 08:37:48;;;;;;;0.30;0.30;;;2.80;99.90;;;;;;4938638;29;20459;-79
2022/01/10 08:40:17;;;;;;;0.30;0.30;;;2.80;99.90;;;;;;4938585;29;20451;-78
2022/01/10 08:42:43;;;;;;;0.30;0.30;;;2.70;99.90;;;;;;4938386;29;20458;-78
2022/01/10 08:45:11;;;;;;;0.40;0.40;;;2.70;99.90;;;;;;4938468;29;20455;-79
2022/01/10 08:47:39;;;;;;;0.30;0.30;;;2.80;99.90;;;;;;4939460;29;20557;-79
2022/01/10 08:50:09;;;;;;;1.40;1.17;;;2.80;99.90;;;;;;4941415;29;20507;-79
2022/01/10 08:52:36;;;;;;;1.53;0.53;;;2.80;99.90;;;;;;4944496;29;20447;-79
2022/01/10 08:55:04;;;;;;;0.30;0.30;;;2.90;99.90;;;;;;4940765;29;20447;-79
2022/01/10 08:57:32;;;;;;;0.30;0.30;;;3.00;99.90;;;;;;4939355;29;20455;-79
2022/01/10 08:59:59;;;;;;;0.40;0.40;;;3.10;99.90;;;;;;4940490;29;20569;-79
2022/01/10 09:02:26;;;;;;;0.50;0.50;;;3.20;99.90;;;;;;4940498;29;20439;-79
2022/01/10 09:04:53;;;;;;;0.87;0.87;;;3.20;99.90;;;;;;4939846;29;20471;-78
2022/01/10 09:07:20;;;;;;;0.30;0.30;;;3.10;99.90;;;;;;4940058;29;20550;-79
2022/01/10 09:09:47;;;;;;;0.30;0.30;;;3.00;99.90;;;;;;4939799;29;20458;-79
2022/01/10 09:12:13;;;;;;;0.30;0.30;;;3.00;99.90;;;;;;4939996;29;20459;-79
2022/01/10 09:14:41;;;;;;;0.30;0.30;;;3.00;99.90;;;;;;4939091;29;20470;-79
2022/01/10 09:17:08;;;;;;;0.40;0.40;;;3.00;99.90;;;;;;4939391;29;20455;-79
2022/01/10 09:19:35;;;;;;;0.30;0.30;;;3.00;99.90;;;;;;4939569;29;20450;-79
2022/01/10 09:22:02;;;;;;;0.30;0.20;;;3.10;99.90;;;;;;4939470;29;20454;-77
2022/01/10 09:24:28;;;;;;;0.30;0.30;;;3.10;99.90;;;;;;4939024;29;20479;-77
2022/01/10 09:26:56;;;;;;;0.30;0.30;;;3.10;99.90;;;;;;4939031;29;20462;-77
2022/01/10 09:29:23;;;;;;;0.30;0.20;;;3.30;99.90;;;;;;4937614;29;20546;-77
2022/01/10 09:31:51;;;;;;;0.30;0.30;;;3.50;99.90;;;;;;4940790;29;20848;-79
2022/01/10 09:34:18;;;;;;;0.30;0.30;;;3.60;99.90;;;;;;4939384;29;20506;-78
2022/01/10 09:36:45;;;;;;;0.30;0.30;;;3.50;99.90;;;;;;4938455;29;20462;-79
2022/01/10 09:39:13;;;;;;;0.30;0.30;;;3.50;99.90;;;;;;4938031;29;20827;-79
2022/01/10 09:41:40;;;;;;;0.53;0.50;;;3.50;99.90;;;;;;4938042;29;20439;-79
2022/01/10 09:44:07;;;;;;;0.30;0.30;;;3.70;99.90;;;;;;4938577;29;20482;-79
2022/01/10 09:46:35;;;;;;;0.40;0.40;;;3.70;99.90;;;;;;4938634;29;20494;-79
2022/01/10 09:49:05;;;;;;;0.30;0.20;;;3.80;99.90;;;;;;4938378;29;20455;-79
2022/01/10 09:51:32;;;;;;;0.30;0.30;;;3.80;99.90;;;;;;4937846;29;20494;-79
2022/01/10 09:54:01;;;;;;;0.60;0.40;;;3.80;99.90;;;;;;4937585;29;20522;-78
2022/01/10 09:56:29;;;;;;;0.30;0.30;;;3.70;99.90;;;;;;4938459;29;20530;-79
2022/01/10 09:58:57;;;;;;;0.30;0.30;;;3.70;99.90;;;;;;4942266;29;20443;-79
2022/01/10 10:01:25;;;;;;;0.30;0.30;;;3.60;99.90;;;;;;4938395;29;20460;-79
2022/01/10 10:03:53;;;;;;;0.40;0.30;;;3.60;99.90;;;;;;4937270;29;20471;-79
2022/01/10 10:06:21;;;;;;;0.30;0.30;;;3.60;99.90;;;;;;4937510;29;20542;-79
2022/01/10 10:08:48;;;;;;;0.50;0.43;;;3.60;99.90;;;;;;4936883;29;20502;-79
2022/01/10 10:11:15;;;;;;;0.30;0.30;;;3.60;99.90;;;;;;4936610;29;20483;-78
2022/01/10 10:13:44;;;;;;;0.50;0.50;;;3.60;99.90;;;;;;4937337;29;20490;-79
2022/01/10 10:16:14;;;;;;;0.60;0.60;;;3.60;99.90;;;;;;4937049;29;20447;-79
2022/01/10 10:18:43;;;;;;;0.30;0.30;;;3.40;99.90;;;;;;4937146;29;20447;-79
2022/01/10 10:21:14;;;;;;;0.30;0.20;;;3.30;99.90;;;;;;4937366;29;20546;-79
2022/01/10 10:23:46;;;;;;;0.40;0.40;;;3.30;99.90;;;;;;4936846;29;20471;-79
2022/01/10 10:26:16;;;;;;;0.30;0.20;;;3.30;99.90;;;;;;4939759;29;20546;-79
2022/01/10 10:28:45;;;;;;;0.30;0.30;;;3.30;99.90;;;;;;4937958;29;20482;-79
2022/01/10 10:31:12;;;;;;;0.30;0.30;;;3.30;99.90;;;;;;4937257;29;20494;-78
2022/01/10 10:33:48;;;;;;;0.60;0.53;;;3.20;99.90;;;;;;4936197;29;20995;-78
2022/01/10 10:36:15;;;;;;;0.50;0.40;;;3.30;99.90;;;;;;4936587;29;20451;-78
2022/01/10 10:38:43;;;;;;;2.53;2.43;;;3.30;99.90;;;;;;4936925;29;20451;-79
2022/01/10 10:41:10;;;;;;;0.50;0.30;;;3.40;99.90;;;;;;4937744;29;20435;-79
2022/01/10 10:43:39;;;;;;;0.30;0.23;;;3.50;99.90;;;;;;4937110;29;20474;-79
2022/01/10 10:46:10;;;;;;;0.30;0.20;;;3.60;99.90;;;;;;4936797;29;20453;-78
2022/01/10 10:48:39;;;;;;;0.30;0.30;;;3.70;99.90;;;;;;4936795;29;20443;-79
2022/01/10 10:51:06;;;;;;;0.30;0.30;;;3.90;99.90;;;;;;4936636;29;20467;-79
2022/01/10 10:53:33;;;;;;;0.40;0.30;;;3.90;99.90;;;;;;4936423;29;20479;-79
2022/01/10 10:56:05;;;;;;;0.30;0.30;;;4.00;99.90;;;;;;4936969;29;20442;-79
2022/01/10 10:58:33;;;;;;;0.47;0.47;;;4.00;99.90;;;;;;4936783;29;20446;-79
2022/01/10 11:01:01;;;;;;;0.30;0.20;;;4.20;99.90;;;;;;4936665;29;20432;-78
2022/01/10 11:03:28;;;;;;;0.30;0.20;;;4.30;99.90;;;;;;4936695;29;20479;-79
2022/01/10 11:05:57;;;;;;;0.30;0.20;;;4.50;99.90;;;;;;4936985;29;20431;-79
2022/01/10 11:08:27;;;;;;;0.30;0.30;;;4.80;99.90;;;;;;4936416;29;20503;-78
2022/01/10 11:10:54;;;;;;;0.40;0.40;;;5.10;99.90;;;;;;4937448;29;20484;-77
2022/01/10 11:13:24;;;;;;;0.30;0.30;;;5.20;99.90;;;;;;4937466;29;20478;-78
2022/01/10 11:15:52;;;;;;;3.30;0.90;;;5.20;99.90;;;;;;4937568;29;20431;-79
2022/01/10 11:18:22;;;;;;;0.30;0.27;;;5.10;99.90;;;;;;4937377;29;20511;-79
2022/01/10 11:20:50;;;;;;;0.30;0.30;;;5.20;99.90;;;;;;4937543;29;20427;-79
2022/01/10 11:23:18;;;;;;;0.30;0.30;;;5.00;99.90;;;;;;4937068;29;20486;-79
2022/01/10 11:25:45;;;;;;;0.63;0.50;;;4.90;99.90;;;;;;4938665;29;20443;-78
2022/01/10 11:28:22;;;;;;;0.30;0.30;;;4.80;99.90;;;;;;4939974;29;20447;-79
2022/01/10 11:30:52;;;;;;;0.30;0.30;;;4.60;99.90;;;;;;4938259;29;20542;-80
2022/01/10 11:33:21;;;;;;;0.57;0.50;;;4.60;99.90;;;;;;4931021;29;21010;-80
2022/01/10 11:35:51;;;;;;;0.50;0.40;;;4.50;99.90;;;;;;4937390;29;20494;-79
2022/01/10 11:38:26;;;;;;;1.07;0.77;;;4.40;99.90;;;;;;4937634;29;20436;-80
2022/01/10 11:40:58;;;;;;;0.40;0.40;;;4.30;99.90;;;;;;4938632;29;20832;-80
2022/01/10 11:43:43;;;;;;;0.30;0.20;;;4.30;99.90;;;;;;4938568;29;20479;-76
2022/01/10 11:46:18;;;;;;;0.33;0.33;;;4.20;99.90;;;;;;4937539;29;20435;-78
2022/01/10 11:48:48;;;;;;;0.67;0.33;;;4.30;99.90;;;;;;4937521;29;20808;-77
2022/01/10 11:51:16;;;;;;;0.40;0.40;;;4.20;99.90;;;;;;4936986;29;20486;-77
2022/01/10 11:53:45;;;;;;;0.30;0.20;;;4.20;99.90;;;;;;4936844;29;20486;-77
2022/01/10 11:56:27;;;;;;;0.30;0.30;;;4.30;99.90;;;;;;4938598;29;20522;-80
2022/01/10 11:59:17;;;;;;;0.47;0.47;;;4.40;99.90;;;;;;4940266;29;20456;-82
2022/01/10 12:01:47;;;;;;;0.30;0.20;;;4.40;99.90;;;;;;4943968;29;20436;-80
2022/01/10 12:04:16;;;;;;;0.30;0.30;;;4.50;99.90;;;;;;4947387;29;20461;-81
2022/01/10 12:06:44;;;;;;;0.43;0.43;;;4.60;99.90;;;;;;4945248;29;20519;-78
2022/01/10 12:09:12;;;;;;;0.30;0.30;;;4.50;99.90;;;;;;4941568;29;20420;-79
2022/01/10 12:11:40;;;;;;;1.23;0.73;;;4.40;99.90;;;;;;4940261;29;20482;-77
2022/01/10 12:14:09;;;;;;;0.37;0.37;;;4.40;99.90;;;;;;4939935;29;20489;-77
2022/01/10 12:16:37;;;;;;;0.30;0.20;;;4.30;99.90;;;;;;4940623;29;20486;-78
2022/01/10 12:19:06;;;;;;;0.40;0.40;;;4.30;99.90;;;;;;4940041;29;20451;-78
2022/01/10 12:21:34;;;;;;;1.00;0.50;;;4.10;99.90;;;;;;4945263;29;20446;-80
2022/01/10 12:24:01;;;;;;;0.40;0.40;;;4.10;99.90;;;;;;4947652;29;20507;-80
2022/01/10 12:29:13;;;;;;;0.30;0.20;;;4.40;99.90;;;;;;4941432;29;20461;-77
2022/01/10 12:31:42;;;;;;;1.23;0.53;;;4.30;99.90;;;;;;4940250;29;21014;-77
2022/01/10 12:34:12;;;;;;;0.30;0.20;;;4.40;99.90;;;;;;4940709;29;20510;-77
2022/01/10 12:36:40;;;;;;;0.30;0.30;;;4.50;99.90;;;;;;4940823;29;20432;-77
2022/01/10 12:39:11;;;;;;;0.30;0.20;;;4.50;99.90;;;;;;4940770;29;20446;-77
2022/01/10 12:41:39;;;;;;;0.30;0.30;;;4.50;99.90;;;;;;4941644;29;20509;-77
2022/01/10 12:44:06;;;;;;;1.33;1.23;;;4.60;99.90;;;;;;4941124;29;20482;-77
2022/01/10 12:46:33;;;;;;;0.30;0.27;;;4.70;99.90;;;;;;4940759;29;20912;-77
2022/01/10 12:49:03;;;;;;;0.90;0.50;;;4.80;99.90;;;;;;4941522;29;20473;-77
2022/01/10 12:51:35;;;;;;;2.60;1.13;;;4.80;99.90;;;;;;4940257;29;20475;-77
2022/01/10 12:54:01;;;;;;;0.30;0.30;;;4.70;99.90;;;;;;4940630;29;20475;-77
2022/01/10 12:56:28;;;;;;;2.47;0.73;;;4.70;99.90;;;;;;4941744;29;20439;-77
2022/01/10 12:58:55;;;;;;;0.67;0.50;;;4.70;99.90;;;;;;4940896;29;20439;-77
2022/01/10 13:01:23;;;;;;;0.30;0.20;;;4.60;99.90;;;;;;4940644;29;20803;-77
2022/01/10 13:03:54;;;;;;;0.30;0.30;;;4.50;99.90;;;;;;4940059;29;20467;-77
2022/01/10 13:06:22;;;;;;;0.30;0.20;;;4.50;99.90;;;;;;4940919;29;20436;-77